Time;durP1;ratioP1;P1;durP2;ratioP2;P2;SDS_P1;SDS_P2;PMS_P1;PMS_P2;Temp;Humidity;BMP_temperature;BMP_pressure;BME280_temperature;BME280_humidity;BME280_pressure;Samples;Min_cycle;Max_cycle;Signal;HPM_P1;HPM_P2
2023/04/10 04:00:41;;;;;;;5.50;4.47;;;7.90;71.80;;;;;;5911513;23;20354;-73
2023/04/10 04:03:08;;;;;;;4.73;4.30;;;7.90;71.80;;;;;;4998275;28;20425;-74
2023/04/10 04:05:34;;;;;;;4.90;4.50;;;7.90;71.60;;;;;;4997373;28;20452;-74
2023/04/10 04:08:02;;;;;;;4.83;4.33;;;7.90;71.60;;;;;;4997042;28;21000;-74
2023/04/10 04:10:29;;;;;;;4.83;4.33;;;7.90;71.70;;;;;;4997125;28;20489;-74
2023/04/10 04:12:55;;;;;;;4.80;4.30;;;7.90;71.80;;;;;;4996942;28;20452;-74
2023/04/10 04:15:22;;;;;;;5.40;4.70;;;7.80;71.90;;;;;;4997776;28;20445;-74
2023/04/10 04:17:51;;;;;;;5.43;4.93;;;7.80;71.80;;;;;;4996834;28;20969;-73
2023/04/10 04:20:17;;;;;;;4.37;3.80;;;7.80;71.90;;;;;;4997086;28;20449;-74
2023/04/10 04:22:45;;;;;;;4.93;4.53;;;7.80;71.90;;;;;;4996939;28;20473;-74
2023/04/10 04:25:11;;;;;;;4.23;3.83;;;7.80;72.00;;;;;;4996971;28;20457;-74
2023/04/10 04:27:38;;;;;;;5.00;4.60;;;7.80;72.00;;;;;;4996998;28;20445;-74
2023/04/10 04:30:06;;;;;;;4.73;4.30;;;7.70;72.10;;;;;;4996850;28;20449;-74
2023/04/10 04:32:32;;;;;;;5.93;5.33;;;7.80;72.00;;;;;;4996777;28;20536;-74
2023/04/10 04:35:00;;;;;;;5.10;4.60;;;7.80;72.10;;;;;;4996827;28;20452;-74
2023/04/10 04:37:27;;;;;;;5.17;4.67;;;7.70;72.20;;;;;;4996803;28;20508;-74
2023/04/10 04:39:54;;;;;;;4.80;4.40;;;7.80;72.10;;;;;;4996852;28;20463;-74
2023/04/10 04:42:20;;;;;;;4.13;3.73;;;7.80;72.10;;;;;;4996323;28;20880;-74
2023/04/10 04:44:49;;;;;;;4.80;4.30;;;7.80;72.20;;;;;;4996370;28;20453;-74
2023/04/10 04:47:15;;;;;;;4.90;4.40;;;7.80;72.20;;;;;;4996799;28;20456;-74
2023/04/10 04:49:42;;;;;;;4.53;4.13;;;7.80;72.00;;;;;;4996507;28;20531;-74
2023/04/10 04:52:10;;;;;;;4.73;4.27;;;7.80;72.10;;;;;;4996082;28;21083;-74
2023/04/10 04:54:37;;;;;;;4.23;3.83;;;7.80;72.00;;;;;;4995774;28;20449;-74
2023/04/10 04:57:04;;;;;;;5.03;4.60;;;7.90;71.80;;;;;;4996395;28;20449;-74
2023/04/10 04:59:30;;;;;;;4.57;4.13;;;7.90;71.70;;;;;;4996037;28;20516;-74
2023/04/10 05:01:57;;;;;;;5.80;5.17;;;7.90;71.60;;;;;;4996017;28;20477;-74
2023/04/10 05:04:24;;;;;;;4.30;3.90;;;8.00;71.60;;;;;;4996381;28;20445;-74
2023/04/10 05:06:51;;;;;;;6.37;4.40;;;8.00;71.60;;;;;;4996267;28;20449;-74
2023/04/10 05:09:19;;;;;;;4.77;4.20;;;8.10;71.50;;;;;;4996244;28;20496;-74
2023/04/10 05:11:46;;;;;;;5.10;4.60;;;8.20;71.30;;;;;;4995703;28;20576;-74
2023/04/10 05:14:12;;;;;;;4.50;4.10;;;8.30;71.30;;;;;;4996154;28;20449;-74
2023/04/10 05:16:39;;;;;;;4.93;4.43;;;8.40;70.80;;;;;;4996011;28;20484;-74
2023/04/10 05:19:05;;;;;;;5.07;4.57;;;8.50;70.70;;;;;;4995974;28;20500;-74
2023/04/10 05:21:32;;;;;;;5.20;4.70;;;8.70;70.40;;;;;;4995652;28;20628;-74
2023/04/10 05:23:59;;;;;;;4.73;4.33;;;8.80;69.70;;;;;;4995959;28;20453;-74
2023/04/10 05:26:27;;;;;;;4.37;3.97;;;8.80;69.80;;;;;;4995565;28;20938;-74
2023/04/10 05:28:53;;;;;;;4.43;3.93;;;9.00;69.70;;;;;;4996414;28;20457;-74
2023/04/10 05:31:20;;;;;;;5.07;4.57;;;9.10;69.40;;;;;;4995673;28;20543;-74
2023/04/10 05:33:46;;;;;;;5.50;5.00;;;9.20;69.10;;;;;;4995760;28;20453;-74
2023/04/10 05:36:13;;;;;;;4.60;4.20;;;9.30;69.10;;;;;;4995852;28;20450;-74
2023/04/10 05:38:40;;;;;;;5.50;5.00;;;9.50;68.50;;;;;;4995635;28;20453;-74
2023/04/10 05:41:07;;;;;;;4.17;3.77;;;9.60;68.40;;;;;;4995535;28;20876;-74
2023/04/10 05:43:35;;;;;;;4.73;4.30;;;9.80;69.10;;;;;;4995516;28;20867;-74
2023/04/10 05:46:02;;;;;;;3.73;3.33;;;9.90;68.10;;;;;;4995516;28;20584;-74
2023/04/10 05:48:28;;;;;;;4.80;4.40;;;10.00;67.40;;;;;;4995460;28;20450;-74
2023/04/10 05:50:55;;;;;;;4.80;4.30;;;10.10;67.10;;;;;;4995263;28;20504;-74
2023/04/10 05:53:24;;;;;;;5.47;4.97;;;10.20;67.00;;;;;;4995403;28;20569;-74
2023/04/10 05:55:51;;;;;;;4.67;4.17;;;10.30;66.80;;;;;;4995333;28;20509;-74
2023/04/10 05:58:17;;;;;;;4.97;4.47;;;10.50;65.80;;;;;;4995258;28;20481;-74
2023/04/10 06:00:45;;;;;;;4.87;4.40;;;10.70;64.20;;;;;;4995053;28;20544;-73
2023/04/10 06:03:12;;;;;;;4.53;4.13;;;10.90;63.50;;;;;;4994917;28;20911;-76
2023/04/10 06:05:40;;;;;;;4.20;3.73;;;11.20;63.80;;;;;;4993864;28;20962;-75
2023/04/10 06:08:06;;;;;;;4.30;3.90;;;11.60;61.10;;;;;;4995060;28;20446;-74
2023/04/10 06:10:33;;;;;;;4.30;3.90;;;12.00;61.60;;;;;;4994639;28;20485;-74
2023/04/10 06:13:00;;;;;;;4.70;4.27;;;12.10;58.60;;;;;;4995009;28;20855;-74
2023/04/10 06:15:27;;;;;;;4.63;4.13;;;12.30;59.40;;;;;;4994954;28;20475;-74
2023/04/10 06:17:55;;;;;;;4.37;3.97;;;12.70;58.00;;;;;;4994965;28;20573;-74
2023/04/10 06:20:22;;;;;;;4.43;4.03;;;13.00;58.00;;;;;;4994786;28;20453;-74
2023/04/10 06:22:48;;;;;;;4.03;3.63;;;12.50;56.50;;;;;;4994879;28;20515;-73
2023/04/10 06:25:15;;;;;;;4.73;4.20;;;12.70;56.30;;;;;;4994402;28;20942;-74
2023/04/10 06:27:42;;;;;;;4.47;3.80;;;12.30;56.90;;;;;;4994783;28;20454;-74
2023/04/10 06:30:10;;;;;;;4.73;4.13;;;12.10;57.20;;;;;;4994656;28;20450;-74
2023/04/10 06:32:36;;;;;;;4.30;3.90;;;11.90;58.00;;;;;;4994490;28;20492;-74
2023/04/10 06:35:05;;;;;;;4.30;3.53;;;12.20;57.30;;;;;;4994615;28;20448;-74
2023/04/10 06:37:32;;;;;;;4.63;3.43;;;12.70;57.10;;;;;;4994554;28;20452;-74
2023/04/10 06:40:07;;;;;;;4.27;3.87;;;13.30;55.50;;;;;;4994515;28;20536;-74
2023/04/10 06:42:33;;;;;;;4.47;4.07;;;13.70;55.20;;;;;;4994462;28;20473;-74
2023/04/10 06:45:00;;;;;;;4.20;3.80;;;14.50;54.20;;;;;;4994479;28;20496;-74
2023/04/10 06:47:27;;;;;;;3.83;3.40;;;14.50;52.40;;;;;;4994376;28;20503;-74
2023/04/10 06:49:54;;;;;;;3.93;3.50;;;15.30;51.50;;;;;;4994023;28;20950;-74
2023/04/10 06:52:22;;;;;;;4.67;4.27;;;16.20;50.10;;;;;;4994188;28;20481;-74
2023/04/10 06:54:49;;;;;;;4.37;3.97;;;16.70;48.30;;;;;;4994273;28;20449;-74
2023/04/10 06:57:15;;;;;;;3.70;3.40;;;16.90;48.30;;;;;;4994176;28;20450;-73
2023/04/10 06:59:42;;;;;;;4.40;4.00;;;16.50;47.50;;;;;;4994152;28;20455;-73
2023/04/10 07:02:09;;;;;;;4.10;3.70;;;16.90;47.40;;;;;;4993738;28;20477;-73
2023/04/10 07:04:36;;;;;;;4.30;3.90;;;16.90;46.40;;;;;;4994199;28;20446;-73
2023/04/10 07:07:02;;;;;;;3.73;3.33;;;15.70;49.00;;;;;;4994135;28;20504;-73
2023/04/10 07:09:31;;;;;;;4.20;3.80;;;15.10;50.00;;;;;;4993754;28;20456;-73
2023/04/10 07:11:57;;;;;;;4.40;4.00;;;15.00;50.70;;;;;;4993899;28;20485;-73
2023/04/10 07:14:24;;;;;;;3.50;3.20;;;14.70;52.00;;;;;;4994013;28;20499;-73
2023/04/10 07:16:52;;;;;;;3.80;3.40;;;14.20;52.70;;;;;;4994078;28;20465;-73
2023/04/10 07:19:19;;;;;;;4.83;3.50;;;13.90;53.10;;;;;;4993952;28;20453;-72
2023/04/10 07:21:48;;;;;;;3.90;3.50;;;13.60;54.00;;;;;;4993508;28;20990;-72
2023/04/10 07:24:15;;;;;;;4.03;3.67;;;13.50;55.30;;;;;;4994130;28;20493;-73
2023/04/10 07:26:43;;;;;;;3.43;2.93;;;13.40;55.60;;;;;;4993860;28;20445;-72
2023/04/10 07:29:10;;;;;;;3.50;3.20;;;13.40;54.60;;;;;;4993898;28;20442;-75
2023/04/10 07:31:36;;;;;;;3.37;3.07;;;13.50;54.80;;;;;;4993721;28;20496;-74
2023/04/10 07:34:03;;;;;;;3.90;3.50;;;13.40;55.30;;;;;;4993822;28;20453;-75
2023/04/10 07:36:30;;;;;;;3.57;3.10;;;13.70;55.20;;;;;;4993822;28;20452;-75
2023/04/10 07:38:57;;;;;;;3.30;3.00;;;13.60;54.80;;;;;;4993790;28;20499;-76
2023/04/10 07:41:24;;;;;;;3.50;3.20;;;13.70;54.80;;;;;;4994008;28;20472;-75
2023/04/10 07:43:52;;;;;;;4.03;3.63;;;13.70;54.60;;;;;;4993978;28;20481;-78
2023/04/10 07:46:19;;;;;;;3.33;3.03;;;13.50;55.00;;;;;;4994121;28;20450;-74
2023/04/10 07:48:46;;;;;;;3.60;3.13;;;13.30;53.80;;;;;;4993950;28;20449;-75
2023/04/10 07:51:13;;;;;;;3.23;2.77;;;13.10;56.40;;;;;;4993816;28;21034;-75
2023/04/10 07:53:40;;;;;;;3.17;2.47;;;12.90;53.70;;;;;;4994673;28;20496;-72
2023/04/10 07:56:14;;;;;;;2.70;1.97;;;12.90;54.00;;;;;;4994118;28;20460;-72
2023/04/10 07:58:41;;;;;;;3.10;2.50;;;13.10;54.10;;;;;;4995149;28;20477;-73
2023/04/10 08:01:09;;;;;;;3.10;2.50;;;13.00;54.40;;;;;;4994059;28;20890;-73
2023/04/10 08:03:38;;;;;;;3.17;2.33;;;13.10;54.60;;;;;;4995342;28;20461;-74
2023/04/10 08:06:07;;;;;;;3.10;2.43;;;13.20;54.60;;;;;;4995848;28;20457;-72
2023/04/10 08:08:35;;;;;;;2.90;2.40;;;13.50;53.40;;;;;;4994643;28;20946;-73
2023/04/10 08:11:02;;;;;;;2.50;2.00;;;13.80;53.00;;;;;;4995094;28;20531;-72
2023/04/10 08:13:28;;;;;;;2.60;2.20;;;13.80;51.80;;;;;;4995777;28;20464;-76
2023/04/10 08:15:55;;;;;;;2.90;2.20;;;13.50;52.90;;;;;;4994805;28;20453;-73
2023/04/10 08:18:23;;;;;;;2.60;2.37;;;13.50;52.50;;;;;;4995788;28;20453;-73
2023/04/10 08:20:50;;;;;;;3.00;2.53;;;13.70;53.30;;;;;;4994151;28;20480;-73
2023/04/10 08:23:17;;;;;;;2.70;2.23;;;13.90;52.50;;;;;;4994029;28;20457;-73
2023/04/10 08:25:45;;;;;;;2.67;1.97;;;13.90;53.00;;;;;;4993836;28;20437;-73
2023/04/10 08:28:11;;;;;;;3.20;2.27;;;14.00;53.30;;;;;;4993821;28;20459;-73
2023/04/10 08:30:38;;;;;;;3.03;2.20;;;14.30;52.50;;;;;;4997058;28;20457;-72
2023/04/10 08:33:05;;;;;;;2.50;2.03;;;14.40;51.50;;;;;;4997180;28;20516;-73
2023/04/10 08:35:33;;;;;;;3.33;2.03;;;14.50;50.40;;;;;;4997134;28;20456;-74
2023/04/10 08:37:59;;;;;;;3.00;2.10;;;14.50;50.60;;;;;;4997234;28;20460;-72
2023/04/10 08:40:26;;;;;;;2.40;1.77;;;14.50;49.30;;;;;;4997121;28;20456;-73
2023/04/10 08:42:53;;;;;;;2.57;2.00;;;14.60;49.50;;;;;;4997332;28;20452;-74
2023/04/10 08:45:20;;;;;;;2.57;1.80;;;14.60;48.50;;;;;;4997061;28;20504;-74
2023/04/10 08:47:50;;;;;;;2.23;1.57;;;14.40;50.20;;;;;;4997232;28;20465;-73
2023/04/10 08:50:18;;;;;;;2.40;1.53;;;14.50;49.90;;;;;;4997541;28;20814;-73
2023/04/10 08:52:50;;;;;;;2.30;1.50;;;14.60;51.50;;;;;;4998406;28;20998;-74
2023/04/10 08:55:17;;;;;;;2.50;2.00;;;14.80;50.10;;;;;;4998794;28;20497;-74
2023/04/10 08:57:45;;;;;;;2.63;2.10;;;14.80;49.70;;;;;;4999451;28;20453;-73
2023/04/10 09:00:12;;;;;;;2.20;1.50;;;14.90;50.40;;;;;;4997457;28;20465;-71
2023/04/10 09:02:40;;;;;;;2.40;1.67;;;14.80;49.30;;;;;;4997098;28;20474;-71
2023/04/10 09:05:11;;;;;;;2.30;1.60;;;14.80;49.60;;;;;;4998494;28;20508;-73
2023/04/10 09:07:37;;;;;;;2.10;1.40;;;15.00;50.10;;;;;;5000106;28;20454;-73
2023/04/10 09:10:06;;;;;;;2.50;1.90;;;15.10;48.80;;;;;;4999914;28;20460;-74
2023/04/10 09:12:44;;;;;;;2.20;1.40;;;15.10;48.70;;;;;;4998164;28;20493;-72
2023/04/10 09:15:12;;;;;;;2.20;1.50;;;15.00;47.50;;;;;;4997347;28;20414;-75
2023/04/10 09:17:54;;;;;;;2.30;1.53;;;15.10;48.50;;;;;;4996888;28;20457;-73
2023/04/10 09:20:22;;;;;;;2.03;1.30;;;15.00;48.10;;;;;;4997534;28;20434;-73
2023/04/10 09:22:49;;;;;;;2.23;1.63;;;15.00;47.80;;;;;;4996020;28;20862;-76
2023/04/10 09:25:31;;;;;;;2.73;1.60;;;15.10;47.60;;;;;;4996433;28;20453;-75
2023/04/10 09:28:03;;;;;;;2.50;1.83;;;14.90;47.80;;;;;;4996333;28;20442;-74
2023/04/10 09:30:38;;;;;;;2.20;1.43;;;15.10;48.40;;;;;;4995682;28;20464;-74
2023/04/10 09:33:21;;;;;;;2.40;1.50;;;15.20;48.80;;;;;;4995772;28;21088;-75
2023/04/10 09:35:49;;;;;;;2.10;1.30;;;15.40;49.00;;;;;;4996171;28;20441;-74
2023/04/10 09:38:17;;;;;;;2.07;1.30;;;15.60;47.40;;;;;;4995723;28;20503;-74
2023/04/10 09:40:45;;;;;;;1.93;1.37;;;15.40;47.80;;;;;;4995099;28;20476;-75
2023/04/10 09:43:21;;;;;;;2.33;1.60;;;15.40;47.30;;;;;;4995651;28;20504;-75
2023/04/10 09:45:50;;;;;;;2.30;1.63;;;15.50;48.00;;;;;;4996839;28;20432;-73
2023/04/10 09:48:17;;;;;;;2.30;1.60;;;15.70;47.90;;;;;;4995621;28;20457;-72
2023/04/10 09:50:44;;;;;;;2.10;1.40;;;15.60;46.20;;;;;;4995437;28;20523;-74
2023/04/10 09:53:13;;;;;;;2.10;1.33;;;15.40;46.50;;;;;;4995197;28;20903;-70
2023/04/10 09:55:40;;;;;;;2.03;1.27;;;15.30;47.70;;;;;;4994943;28;20507;-72
2023/04/10 09:58:09;;;;;;;2.03;1.30;;;15.50;48.40;;;;;;4995152;28;20581;-72
2023/04/10 10:00:41;;;;;;;2.13;1.37;;;15.70;49.00;;;;;;4995106;28;20460;-73
2023/04/10 10:03:09;;;;;;;2.03;1.33;;;16.00;46.30;;;;;;4994884;28;20937;-73
2023/04/10 10:05:39;;;;;;;2.10;1.30;;;15.90;47.00;;;;;;4995146;28;20453;-73
2023/04/10 10:08:06;;;;;;;2.57;1.43;;;16.00;45.00;;;;;;4995096;28;20445;-71
2023/04/10 10:10:33;;;;;;;2.00;1.20;;;16.20;45.80;;;;;;4995021;28;20453;-71
2023/04/10 10:13:02;;;;;;;2.13;1.23;;;16.30;45.70;;;;;;4994946;28;20477;-71
2023/04/10 10:15:37;;;;;;;2.30;1.43;;;16.50;45.20;;;;;;5099597;23;20501;-70
2023/04/10 10:18:10;;;;;;;2.00;1.30;;;16.60;45.80;;;;;;4994999;28;20433;-70
2023/04/10 10:20:38;;;;;;;2.30;1.30;;;17.00;43.60;;;;;;4994899;28;20437;-70
2023/04/10 10:23:07;;;;;;;2.10;1.40;;;16.70;43.90;;;;;;4994774;28;20452;-70
2023/04/10 10:25:35;;;;;;;2.00;1.20;;;17.10;45.40;;;;;;4994637;28;20480;-70
2023/04/10 10:28:04;;;;;;;2.03;1.13;;;17.30;42.50;;;;;;4994739;28;20458;-70
2023/04/10 10:30:33;;;;;;;1.80;1.00;;;17.20;42.60;;;;;;4994724;28;20449;-70
2023/04/10 10:33:02;;;;;;;2.27;1.33;;;17.20;42.60;;;;;;4994756;28;20480;-70
2023/04/10 10:35:31;;;;;;;1.80;0.90;;;17.20;39.50;;;;;;4994613;28;20474;-69
2023/04/10 10:37:59;;;;;;;2.13;1.10;;;17.00;39.80;;;;;;4994592;28;20453;-70
2023/04/10 10:40:31;;;;;;;1.87;1.07;;;16.90;41.40;;;;;;4994565;28;20536;-71
2023/04/10 10:43:05;;;;;;;1.90;1.10;;;17.10;41.60;;;;;;4994683;28;20525;-70
2023/04/10 10:45:38;;;;;;;2.10;1.23;;;17.20;41.70;;;;;;4994461;28;20556;-69
2023/04/10 10:48:05;;;;;;;1.77;0.90;;;17.40;39.30;;;;;;4994799;28;20437;-74
2023/04/10 10:50:51;;;;;;;2.10;1.20;;;17.50;39.80;;;;;;4994577;28;20971;-73
2023/04/10 10:53:32;;;;;;;1.93;1.03;;;17.50;39.80;;;;;;4993922;28;20555;-72
2023/04/10 10:55:59;;;;;;;1.90;1.00;;;17.70;40.30;;;;;;4994562;28;20434;-73
2023/04/10 10:58:46;;;;;;;1.80;0.90;;;17.90;39.90;;;;;;4994346;28;20449;-72
2023/04/10 11:01:15;;;;;;;1.70;0.80;;;17.80;39.80;;;;;;4994296;28;20455;-70
2023/04/10 11:03:43;;;;;;;1.73;0.80;;;17.90;38.20;;;;;;4994182;28;20449;-71
2023/04/10 11:06:11;;;;;;;1.67;0.77;;;17.60;36.50;;;;;;4994117;28;20484;-71
2023/04/10 11:08:44;;;;;;;1.80;0.93;;;17.70;39.70;;;;;;4993782;28;20449;-71
2023/04/10 11:11:14;;;;;;;2.00;0.90;;;18.00;37.40;;;;;;4994143;28;20434;-73
2023/04/10 11:13:57;;;;;;;1.90;0.90;;;17.90;38.70;;;;;;4994152;28;20485;-73
2023/04/10 11:16:43;;;;;;;1.80;0.90;;;18.00;39.40;;;;;;4981897;28;20453;-73
2023/04/10 11:19:12;;;;;;;1.80;0.80;;;18.40;40.10;;;;;;4993978;28;20946;-74
2023/04/10 11:22:02;;;;;;;1.90;0.97;;;18.40;36.80;;;;;;4994125;28;20460;-73
2023/04/10 11:24:29;;;;;;;1.90;0.90;;;18.80;38.00;;;;;;4994264;28;20472;-72
2023/04/10 11:26:56;;;;;;;2.50;0.90;;;19.20;37.20;;;;;;4994085;28;20943;-73
2023/04/10 11:29:35;;;;;;;1.80;0.80;;;19.10;35.80;;;;;;4994331;28;20634;-74
2023/04/10 11:32:04;;;;;;;1.80;0.83;;;19.20;36.10;;;;;;4994244;28;20461;-74
2023/04/10 11:34:32;;;;;;;1.63;0.70;;;19.40;36.00;;;;;;4993800;28;20493;-72
2023/04/10 11:37:01;;;;;;;1.70;0.80;;;19.50;35.60;;;;;;4994034;28;21001;-74
2023/04/10 11:39:29;;;;;;;1.70;0.80;;;19.50;35.10;;;;;;4994530;28;20457;-72
2023/04/10 11:41:56;;;;;;;1.80;0.80;;;19.80;35.80;;;;;;4994566;28;20968;-74
2023/04/10 11:44:29;;;;;;;1.67;0.80;;;19.90;36.00;;;;;;4995136;28;20465;-74
2023/04/10 11:46:56;;;;;;;1.77;0.90;;;19.60;34.20;;;;;;4995534;28;20434;-73
2023/04/10 11:49:26;;;;;;;1.63;0.70;;;19.10;35.00;;;;;;4995290;28;20450;-75
2023/04/10 11:51:54;;;;;;;1.60;0.70;;;19.10;34.80;;;;;;4995029;28;20457;-73
2023/04/10 11:54:22;;;;;;;1.60;0.70;;;19.20;33.70;;;;;;4995274;28;20493;-74
2023/04/10 11:56:58;;;;;;;1.80;0.80;;;19.20;33.60;;;;;;4995828;28;20487;-74
2023/04/10 11:59:25;;;;;;;1.60;0.70;;;19.10;33.20;;;;;;4995737;28;20437;-74
2023/04/10 12:01:54;;;;;;;1.70;0.70;;;19.40;34.30;;;;;;4995574;28;20488;-74
2023/04/10 12:04:23;;;;;;;1.80;0.87;;;19.60;32.40;;;;;;4996752;28;20469;-74
2023/04/10 12:06:52;;;;;;;1.80;0.80;;;19.40;31.60;;;;;;4999188;28;20456;-73
2023/04/10 12:09:20;;;;;;;1.60;0.63;;;19.30;32.40;;;;;;4999031;28;20445;-74
2023/04/10 12:11:52;;;;;;;1.60;0.70;;;19.40;32.00;;;;;;4999412;28;20457;-75
2023/04/10 12:14:19;;;;;;;1.60;0.73;;;19.60;31.40;;;;;;4998701;28;20906;-74
2023/04/10 12:16:46;;;;;;;1.60;0.70;;;19.70;32.40;;;;;;4998629;28;20449;-75
2023/04/10 12:19:15;;;;;;;1.60;0.70;;;20.00;31.80;;;;;;4997938;28;20453;-73
2023/04/10 12:21:43;;;;;;;1.80;0.90;;;20.00;31.10;;;;;;4997835;28;20487;-74
2023/04/10 12:24:11;;;;;;;1.80;0.70;;;19.80;31.40;;;;;;4997860;28;20483;-73
2023/04/10 12:26:37;;;;;;;1.80;0.93;;;19.40;31.00;;;;;;4997371;28;20989;-74
2023/04/10 12:29:06;;;;;;;1.70;0.80;;;19.20;30.30;;;;;;4997666;28;20456;-74
2023/04/10 12:31:33;;;;;;;1.80;0.83;;;19.10;32.50;;;;;;4997500;28;21005;-74
2023/04/10 12:34:01;;;;;;;1.60;0.70;;;19.10;32.00;;;;;;4997674;28;20495;-74
2023/04/10 12:36:30;;;;;;;1.60;0.70;;;18.70;31.80;;;;;;4997554;28;20541;-73
2023/04/10 12:39:00;;;;;;;1.60;0.70;;;18.90;31.90;;;;;;4997277;28;20973;-73
2023/04/10 12:41:29;;;;;;;1.60;0.70;;;19.20;32.30;;;;;;4997311;28;20943;-74
2023/04/10 12:44:08;;;;;;;1.60;0.70;;;19.50;33.20;;;;;;4997434;28;20476;-74
2023/04/10 12:46:35;;;;;;;1.90;0.90;;;19.30;33.10;;;;;;4997512;28;20445;-74
2023/04/10 12:49:09;;;;;;;1.70;0.70;;;19.40;33.50;;;;;;4997231;28;20943;-74
2023/04/10 12:51:46;;;;;;;1.90;0.80;;;19.60;32.80;;;;;;4997319;28;20464;-74
2023/04/10 12:54:28;;;;;;;1.70;0.90;;;19.50;32.70;;;;;;4997397;28;20488;-74
2023/04/10 12:56:56;;;;;;;1.70;0.80;;;19.20;32.00;;;;;;4997516;28;20442;-74
2023/04/10 12:59:23;;;;;;;1.80;0.90;;;18.90;32.50;;;;;;4997426;28;20540;-73
2023/04/10 13:01:50;;;;;;;1.60;0.70;;;19.30;35.00;;;;;;4998017;28;20453;-75
2023/04/10 13:04:17;;;;;;;1.70;0.80;;;19.50;33.70;;;;;;4996681;28;20999;-74
2023/04/10 13:06:44;;;;;;;1.70;0.80;;;19.30;34.50;;;;;;4996883;28;20552;-74
2023/04/10 13:09:12;;;;;;;1.70;0.80;;;19.70;34.10;;;;;;4996968;28;20453;-74
2023/04/10 13:11:40;;;;;;;1.80;0.90;;;19.60;33.80;;;;;;4996473;28;20508;-75
2023/04/10 13:14:07;;;;;;;2.03;0.90;;;19.20;33.90;;;;;;4996412;28;20567;-75
2023/04/10 13:16:34;;;;;;;1.70;0.90;;;19.00;34.50;;;;;;4996284;28;20437;-74
2023/04/10 13:19:01;;;;;;;2.00;1.00;;;18.80;34.90;;;;;;4997018;28;20450;-78
2023/04/10 13:21:27;;;;;;;1.90;0.90;;;18.70;35.50;;;;;;4997605;28;20457;-75
2023/04/10 13:23:54;;;;;;;1.70;0.70;;;18.60;34.70;;;;;;4997504;28;20492;-75
2023/04/10 13:26:21;;;;;;;1.70;0.80;;;18.80;35.60;;;;;;4997385;28;20453;-75
2023/04/10 13:28:49;;;;;;;1.90;0.80;;;19.10;34.80;;;;;;4997171;28;21009;-75
2023/04/10 13:31:16;;;;;;;1.80;0.83;;;18.90;35.00;;;;;;4997592;28;20453;-75
2023/04/10 13:33:45;;;;;;;1.70;0.80;;;19.00;35.10;;;;;;4997018;28;20899;-75
2023/04/10 13:36:12;;;;;;;1.80;0.70;;;19.10;35.50;;;;;;4997305;28;20449;-76
2023/04/10 13:38:39;;;;;;;2.33;0.90;;;19.30;35.00;;;;;;4997059;28;20464;-76
2023/04/10 13:41:06;;;;;;;1.80;0.90;;;19.10;34.00;;;;;;4996882;28;20457;-75
2023/04/10 13:43:32;;;;;;;1.70;0.80;;;19.30;35.20;;;;;;4996963;28;20520;-74
2023/04/10 13:46:00;;;;;;;1.70;0.70;;;19.10;33.80;;;;;;4997365;28;20453;-74
2023/04/10 13:48:27;;;;;;;1.80;0.93;;;19.00;34.40;;;;;;4996521;28;20504;-76
2023/04/10 13:50:54;;;;;;;1.60;0.70;;;19.30;35.90;;;;;;4996647;28;20453;-75
2023/04/10 13:53:21;;;;;;;1.90;0.90;;;19.50;35.20;;;;;;4996558;28;20535;-75
2023/04/10 13:55:49;;;;;;;1.63;0.70;;;19.30;34.50;;;;;;4996216;28;20477;-76
2023/04/10 13:58:16;;;;;;;1.67;0.77;;;19.40;35.60;;;;;;4996743;28;20464;-75
2023/04/10 14:00:43;;;;;;;1.73;0.83;;;19.30;34.10;;;;;;4996390;28;20490;-75
2023/04/10 14:03:11;;;;;;;1.83;0.90;;;19.60;35.40;;;;;;4996353;28;20536;-77
2023/04/10 14:05:37;;;;;;;1.60;0.70;;;19.90;35.00;;;;;;4996303;28;20819;-75
2023/04/10 14:08:04;;;;;;;1.80;0.80;;;19.90;32.90;;;;;;4996040;28;20453;-75
2023/04/10 14:10:31;;;;;;;2.00;1.00;;;19.80;33.80;;;;;;4996019;28;20947;-74
2023/04/10 14:12:58;;;;;;;1.70;0.80;;;19.60;33.20;;;;;;4996107;28;21017;-75
2023/04/10 14:15:25;;;;;;;1.60;0.70;;;19.40;34.80;;;;;;4996104;28;20489;-75
2023/04/10 14:17:51;;;;;;;1.70;0.90;;;19.60;34.70;;;;;;4996913;28;20460;-75
2023/04/10 14:20:20;;;;;;;1.80;0.80;;;19.70;34.00;;;;;;4995744;28;20910;-76
2023/04/10 14:22:47;;;;;;;2.10;0.83;;;19.70;34.70;;;;;;4995761;28;20453;-76
2023/04/10 14:25:15;;;;;;;1.70;0.80;;;19.70;34.50;;;;;;4995688;28;20891;-76
2023/04/10 14:27:42;;;;;;;1.80;0.90;;;19.70;34.70;;;;;;4995740;28;20572;-75
2023/04/10 14:30:10;;;;;;;1.70;0.80;;;19.60;34.30;;;;;;4997476;28;20504;-76
2023/04/10 14:32:38;;;;;;;1.70;0.87;;;19.80;34.90;;;;;;4997289;28;20862;-76
2023/04/10 14:35:05;;;;;;;1.80;1.00;;;20.10;34.90;;;;;;4996490;28;20714;-74
2023/04/10 14:37:33;;;;;;;2.00;0.90;;;20.10;34.70;;;;;;4996626;28;20951;-75
2023/04/10 14:40:00;;;;;;;1.80;0.70;;;20.10;34.90;;;;;;4995849;28;20872;-76
2023/04/10 14:42:27;;;;;;;1.70;0.80;;;20.10;34.80;;;;;;4995630;28;20445;-76
2023/04/10 14:44:53;;;;;;;2.33;1.00;;;20.10;35.20;;;;;;4996401;28;20480;-75
2023/04/10 14:47:20;;;;;;;1.80;0.90;;;20.10;35.40;;;;;;4996548;28;20577;-75
2023/04/10 14:49:47;;;;;;;1.87;0.90;;;20.40;34.90;;;;;;4996547;28;20480;-75
2023/04/10 14:52:13;;;;;;;1.87;0.87;;;20.50;34.00;;;;;;4996449;28;20450;-75
2023/04/10 14:54:41;;;;;;;2.47;0.90;;;20.70;34.90;;;;;;4996484;28;20493;-75
2023/04/10 14:57:08;;;;;;;1.63;0.80;;;20.50;32.80;;;;;;4996595;28;20453;-75
2023/04/10 14:59:35;;;;;;;1.83;0.90;;;20.50;33.80;;;;;;4996730;28;20503;-75
2023/04/10 15:02:01;;;;;;;2.00;0.97;;;20.90;34.30;;;;;;4996673;28;20465;-76
2023/04/10 15:04:28;;;;;;;1.60;0.70;;;21.20;34.10;;;;;;4995963;28;20496;-76
2023/04/10 15:06:55;;;;;;;1.70;0.77;;;21.90;33.50;;;;;;4996454;28;20504;-75
2023/04/10 15:09:21;;;;;;;1.70;0.80;;;21.90;32.00;;;;;;4996498;28;20504;-76
2023/04/10 15:11:49;;;;;;;1.97;0.83;;;21.90;32.50;;;;;;4996250;28;20438;-76
2023/04/10 15:14:16;;;;;;;1.70;0.80;;;22.00;32.80;;;;;;4995122;28;20889;-75
2023/04/10 15:16:43;;;;;;;1.60;0.60;;;21.50;32.30;;;;;;4995805;28;20500;-75
2023/04/10 15:19:09;;;;;;;1.73;0.80;;;21.00;32.10;;;;;;4996109;28;20531;-76
2023/04/10 15:21:36;;;;;;;1.80;0.80;;;21.00;33.20;;;;;;4996114;28;20453;-76
2023/04/10 15:24:03;;;;;;;1.70;0.77;;;21.30;32.50;;;;;;4995879;28;20465;-76
2023/04/10 15:26:29;;;;;;;1.70;0.80;;;21.20;32.00;;;;;;4996364;28;20477;-76
2023/04/10 15:28:57;;;;;;;1.80;0.80;;;21.00;32.20;;;;;;4995795;28;20569;-76
2023/04/10 15:31:24;;;;;;;1.80;0.90;;;21.00;33.10;;;;;;4995710;28;20516;-76
2023/04/10 15:33:51;;;;;;;1.70;0.80;;;20.60;33.20;;;;;;4996024;28;20489;-77
2023/04/10 15:36:18;;;;;;;1.70;0.90;;;20.20;33.50;;;;;;4996671;28;20869;-76
2023/04/10 15:38:44;;;;;;;1.80;0.90;;;20.20;33.80;;;;;;4997831;28;21012;-76
2023/04/10 15:41:12;;;;;;;1.70;0.80;;;20.00;34.40;;;;;;5000001;28;20468;-76
2023/04/10 15:43:39;;;;;;;1.70;0.80;;;19.90;35.30;;;;;;4999989;28;20457;-75
2023/04/10 15:46:07;;;;;;;2.00;0.93;;;19.70;34.20;;;;;;4999845;28;20453;-76
2023/04/10 15:48:33;;;;;;;1.90;0.90;;;19.80;35.60;;;;;;5000374;28;20461;-75
2023/04/10 15:51:04;;;;;;;1.70;0.77;;;19.90;34.40;;;;;;4999621;28;20563;-75
2023/04/10 15:53:31;;;;;;;1.80;0.80;;;19.60;34.00;;;;;;4999420;28;20946;-77
2023/04/10 15:55:57;;;;;;;2.10;0.70;;;19.50;34.30;;;;;;4999589;28;20456;-76
2023/04/10 15:58:24;;;;;;;1.67;0.77;;;19.50;35.10;;;;;;4999936;28;20453;-76
2023/04/10 16:00:51;;;;;;;1.77;0.80;;;19.40;36.20;;;;;;5000137;28;20471;-76
2023/04/10 16:03:19;;;;;;;1.90;1.00;;;19.30;36.50;;;;;;4999783;28;20453;-76
2023/04/10 16:05:45;;;;;;;1.70;0.80;;;19.20;36.60;;;;;;5000222;28;21002;-76
2023/04/10 16:08:12;;;;;;;1.80;0.80;;;19.20;36.50;;;;;;4999807;28;20445;-75
2023/04/10 16:10:39;;;;;;;1.70;0.73;;;18.90;36.10;;;;;;5000132;28;20461;-76
2023/04/10 16:13:06;;;;;;;1.70;0.80;;;18.90;37.60;;;;;;5000498;28;20457;-75
2023/04/10 16:15:35;;;;;;;1.90;0.80;;;18.90;36.70;;;;;;5001362;28;20839;-76
2023/04/10 16:18:02;;;;;;;1.70;0.80;;;18.70;36.60;;;;;;5001389;28;20488;-75
2023/04/10 16:20:30;;;;;;;1.70;0.80;;;18.60;36.40;;;;;;4998135;28;20460;-76
2023/04/10 16:22:57;;;;;;;1.80;0.80;;;18.50;38.10;;;;;;4998624;28;20457;-76
2023/04/10 16:25:25;;;;;;;1.90;1.00;;;18.50;39.00;;;;;;4997752;28;20523;-76
2023/04/10 16:27:52;;;;;;;2.00;0.90;;;18.50;39.10;;;;;;4997174;28;20856;-75
2023/04/10 16:30:20;;;;;;;2.70;1.93;;;18.50;39.20;;;;;;4997326;28;20452;-75
2023/04/10 16:32:46;;;;;;;2.00;1.00;;;18.50;39.60;;;;;;4997307;28;20457;-75
2023/04/10 16:35:13;;;;;;;2.17;1.10;;;18.80;39.70;;;;;;4997368;28;20503;-75
2023/04/10 16:37:41;;;;;;;1.70;0.80;;;18.80;39.20;;;;;;4997156;28;20529;-75
2023/04/10 16:40:09;;;;;;;1.70;0.70;;;18.60;39.40;;;;;;4997142;28;20461;-76
2023/04/10 16:42:36;;;;;;;1.80;1.10;;;18.80;39.60;;;;;;4997433;28;20461;-75
2023/04/10 16:45:02;;;;;;;1.70;0.80;;;19.00;38.20;;;;;;4997132;28;20473;-75
2023/04/10 16:47:29;;;;;;;1.57;0.70;;;19.20;37.80;;;;;;4997533;28;20507;-76
2023/04/10 16:49:56;;;;;;;1.80;0.90;;;19.10;37.60;;;;;;4997222;28;20453;-76
2023/04/10 16:52:23;;;;;;;1.93;0.90;;;19.20;38.30;;;;;;4998068;28;20449;-75